Polaris — JD2797 — position and weather

sailwx.info

Track history (hours):
 
Tides and Currents Weather Stations Pressure Air Temp Water Temp Dewpoint Dewpoint Depression Visibility Wind Speed Wind Dir Waves Ship Positions

Polaris

Last reported at 2015-Feb-28 09:07 UTC. Time now 2015-Feb-28 13:57 UTC.
Position N 35°27' E 139°40'.

Length 30 m; draft 2.6 m.

Type: Pilot. MMSI: 431000764.

Date/timePositionNaut miles runAvg speedWind from/ knotsBaromVisibWave heightAir tempDewpointWater temp
2015-Feb-28 09:07N 35°27' E 139°40'5 8.4
2015-Feb-28 08:33N 35°26' E 139°45'1110.6
2015-Feb-28 07:32N 35°15' E 139°47'4 3.9
2015-Feb-28 06:33N 35°12' E 139°46'1414.2
2015-Feb-28 05:33N 35°25' E 139°42'2 0.1
2015-Feb-26 11:33N 35°27' E 139°40'1212.4
2015-Feb-26 10:33N 35°15' E 139°45'6 5.8
2015-Feb-26 09:34N 35°21' E 139°42'5 5.1
2015-Feb-26 08:33N 35°26' E 139°43'3 2.8
2015-Feb-26 07:33N 35°27' E 139°40'0 0.0
2015-Feb-26 06:34N 35°27' E 139°40'0 0.0
2015-Feb-25 06:32N 35°27' E 139°40'5 5.4
2015-Feb-25 05:34N 35°31' E 139°44'4 4.1
2015-Feb-25 04:33N 35°28' E 139°40'1 1.3
2015-Feb-25 03:33N 35°27' E 139°40'0 0.0
2015-Feb-25 02:33N 35°27' E 139°40'5 5.4
2015-Feb-25 01:33N 35°28' E 139°46'10 1.9
2015-Feb-24 20:29N 35°29' E 139°58'0 0.1
2015-Feb-24 18:30N 35°29' E 139°58'0 0.0
2015-Feb-24 17:09N 35°29' E 139°58'0 0.0
2015-Feb-24 16:28N 35°29' E 139°58'0 0.0
2015-Feb-24 09:25N 35°29' E 139°58'0 0.1
2015-Feb-24 08:11N 35°29' E 139°58'0 0.1
2015-Feb-24 05:20N 35°29' E 139°58'5 1.5
2015-Feb-24 02:15N 35°28' E 139°52'912.7
2015-Feb-24 01:33N 35°27' E 139°42'2 0.1
2015-Feb-23 02:07N 35°27' E 139°40'610.4
2015-Feb-23 01:33N 35°25' E 139°46'10 4.8
2015-Feb-22 23:33N 35°15' E 139°46'1313.0
2015-Feb-22 22:33N 35°27' E 139°40'0 0.0
2015-Feb-21 11:17N 35°27' E 139°40'7 9.7
2015-Feb-21 10:33N 35°20' E 139°42'4 3.9
2015-Feb-21 09:31N 35°17' E 139°45'1010.8
2015-Feb-21 08:34N 35°27' E 139°43'3 2.5
2015-Feb-21 07:33N 35°27' E 139°40'0 0.0
2015-Feb-21 06:33N 35°27' E 139°40'0 0.0
2015-Feb-21 05:33N 35°27' E 139°40'0 0.0
2015-Feb-21 04:33N 35°27' E 139°40'0 0.0
2015-Feb-21 03:33N 35°27' E 139°40'0 0.0
2015-Feb-21 02:33N 35°27' E 139°40'0 0.0
2015-Feb-21 01:33N 35°27' E 139°40'0 0.0
2015-Feb-21 00:33N 35°27' E 139°40'1 0.6
2015-Feb-20 23:33N 35°27' E 139°40'1212.4
2015-Feb-20 22:33N 35°15' E 139°45'7 6.6
2015-Feb-20 21:33N 35°21' E 139°42'6 5.7
2015-Feb-20 20:34N 35°27' E 139°42'2 2.3
2015-Feb-20 19:34N 35°27' E 139°40'0 0.0
2015-Feb-20 18:34N 35°27' E 139°40'0 0.0
2015-Feb-20 17:34N 35°27' E 139°40'0 0.0
2015-Feb-20 16:33N 35°27' E 139°40'0 0.0
2015-Feb-20 15:34N 35°27' E 139°40'0 0.0
2015-Feb-20 14:34N 35°27' E 139°40'0 0.0
2015-Feb-20 13:33N 35°27' E 139°40'0 0.0
2015-Feb-20 12:33N 35°27' E 139°40'0 0.0
2015-Feb-20 11:33N 35°27' E 139°40'0 0.0
2015-Feb-20 10:34N 35°27' E 139°40'0 0.0
2015-Feb-20 09:34N 35°27' E 139°40'0 0.0
2015-Feb-20 08:34N 35°27' E 139°40'0 0.0
2015-Feb-20 07:33N 35°27' E 139°40'0 0.0
2015-Feb-20 06:34N 35°27' E 139°40'0 0.0
2015-Feb-20 05:34N 35°27' E 139°40'0 0.0
2015-Feb-20 04:34N 35°27' E 139°40'0 0.0
2015-Feb-20 03:34N 35°27' E 139°40'0 0.0
2015-Feb-20 02:33N 35°27' E 139°40'0 0.0
2015-Feb-20 01:34N 35°27' E 139°40'0 0.0
2015-Feb-20 00:33N 35°27' E 139°40'5 5.2
2015-Feb-19 23:33N 35°31' E 139°44'3 3.0
2015-Feb-19 22:33N 35°28' E 139°42'2 2.5
2015-Feb-19 21:34N 35°27' E 139°40'0 0.0
2015-Feb-19 20:34N 35°27' E 139°40'  
Track history (hours):
 
Tides and Currents Weather Stations Pressure Air Temp Water Temp Dewpoint Dewpoint Depression Visibility Wind Speed Wind Dir Waves Ship Positions

Polaris

Last reported at 2015-Feb-28 09:07 UTC. Time now 2015-Feb-28 13:57 UTC.
Position N 35°27' E 139°40'.

Length 30 m; draft 2.6 m.

Type: Pilot. MMSI: 431000764.

Date/timePositionNaut miles runAvg speedWind from/ knotsBaromVisibWave heightAir tempDewpointWater temp
2015-Feb-28 09:07N 35°27' E 139°40'5 8.4
2015-Feb-28 08:33N 35°26' E 139°45'1110.6
2015-Feb-28 07:32N 35°15' E 139°47'4 3.9
2015-Feb-28 06:33N 35°12' E 139°46'1414.2
2015-Feb-28 05:33N 35°25' E 139°42'2 0.1
2015-Feb-26 11:33N 35°27' E 139°40'1212.4
2015-Feb-26 10:33N 35°15' E 139°45'6 5.8
2015-Feb-26 09:34N 35°21' E 139°42'5 5.1
2015-Feb-26 08:33N 35°26' E 139°43'3 2.8
2015-Feb-26 07:33N 35°27' E 139°40'0 0.0
2015-Feb-26 06:34N 35°27' E 139°40'0 0.0
2015-Feb-25 06:32N 35°27' E 139°40'5 5.4
2015-Feb-25 05:34N 35°31' E 139°44'4 4.1
2015-Feb-25 04:33N 35°28' E 139°40'1 1.3
2015-Feb-25 03:33N 35°27' E 139°40'0 0.0
2015-Feb-25 02:33N 35°27' E 139°40'5 5.4
2015-Feb-25 01:33N 35°28' E 139°46'10 1.9
2015-Feb-24 20:29N 35°29' E 139°58'0 0.1
2015-Feb-24 18:30N 35°29' E 139°58'0 0.0
2015-Feb-24 17:09N 35°29' E 139°58'0 0.0
2015-Feb-24 16:28N 35°29' E 139°58'0 0.0
2015-Feb-24 09:25N 35°29' E 139°58'0 0.1
2015-Feb-24 08:11N 35°29' E 139°58'0 0.1
2015-Feb-24 05:20N 35°29' E 139°58'5 1.5
2015-Feb-24 02:15N 35°28' E 139°52'912.7
2015-Feb-24 01:33N 35°27' E 139°42'2 0.1
2015-Feb-23 02:07N 35°27' E 139°40'610.4
2015-Feb-23 01:33N 35°25' E 139°46'10 4.8
2015-Feb-22 23:33N 35°15' E 139°46'1313.0
2015-Feb-22 22:33N 35°27' E 139°40'0 0.0
2015-Feb-21 11:17N 35°27' E 139°40'7 9.7
2015-Feb-21 10:33N 35°20' E 139°42'4 3.9
2015-Feb-21 09:31N 35°17' E 139°45'1010.8
2015-Feb-21 08:34N 35°27' E 139°43'3 2.5
2015-Feb-21 07:33N 35°27' E 139°40'0 0.0
2015-Feb-21 06:33N 35°27' E 139°40'0 0.0
2015-Feb-21 05:33N 35°27' E 139°40'0 0.0
2015-Feb-21 04:33N 35°27' E 139°40'0 0.0
2015-Feb-21 03:33N 35°27' E 139°40'0 0.0
2015-Feb-21 02:33N 35°27' E 139°40'0 0.0
2015-Feb-21 01:33N 35°27' E 139°40'0 0.0
2015-Feb-21 00:33N 35°27' E 139°40'1 0.6
2015-Feb-20 23:33N 35°27' E 139°40'1212.4
2015-Feb-20 22:33N 35°15' E 139°45'7 6.6
2015-Feb-20 21:33N 35°21' E 139°42'6 5.7
2015-Feb-20 20:34N 35°27' E 139°42'2 2.3
2015-Feb-20 19:34N 35°27' E 139°40'0 0.0
2015-Feb-20 18:34N 35°27' E 139°40'0 0.0
2015-Feb-20 17:34N 35°27' E 139°40'0 0.0
2015-Feb-20 16:33N 35°27' E 139°40'0 0.0
2015-Feb-20 15:34N 35°27' E 139°40'0 0.0
2015-Feb-20 14:34N 35°27' E 139°40'0 0.0
2015-Feb-20 13:33N 35°27' E 139°40'0 0.0
2015-Feb-20 12:33N 35°27' E 139°40'0 0.0
2015-Feb-20 11:33N 35°27' E 139°40'0 0.0
2015-Feb-20 10:34N 35°27' E 139°40'0 0.0
2015-Feb-20 09:34N 35°27' E 139°40'0 0.0
2015-Feb-20 08:34N 35°27' E 139°40'0 0.0
2015-Feb-20 07:33N 35°27' E 139°40'0 0.0
2015-Feb-20 06:34N 35°27' E 139°40'0 0.0
2015-Feb-20 05:34N 35°27' E 139°40'0 0.0
2015-Feb-20 04:34N 35°27' E 139°40'0 0.0
2015-Feb-20 03:34N 35°27' E 139°40'0 0.0
2015-Feb-20 02:33N 35°27' E 139°40'0 0.0
2015-Feb-20 01:34N 35°27' E 139°40'0 0.0
2015-Feb-20 00:33N 35°27' E 139°40'5 5.2
2015-Feb-19 23:33N 35°31' E 139°44'3 3.0
2015-Feb-19 22:33N 35°28' E 139°42'2 2.5
2015-Feb-19 21:34N 35°27' E 139°40'0 0.0
2015-Feb-19 20:34N 35°27' E 139°40'  

Dump ship's entire track history